createdAt,value
2018-12-05T00:01:49.325Z,7.93
2018-12-05T00:04:24.180Z,7.33
2018-12-05T00:06:58.778Z,9.83
2018-12-05T00:09:33.406Z,9.50
2018-12-05T00:12:08.049Z,8.97
2018-12-05T00:14:42.977Z,9.57
2018-12-05T00:17:17.578Z,7.03
2018-12-05T00:19:52.117Z,10.03
2018-12-05T00:22:26.741Z,10.17
2018-12-05T00:25:01.513Z,10.27
2018-12-05T00:27:36.198Z,10.07
2018-12-05T00:30:11.195Z,10.00
2018-12-05T00:32:45.981Z,10.20
2018-12-05T00:35:20.626Z,11.07
2018-12-05T00:37:55.217Z,10.67
2018-12-05T00:40:30.164Z,11.17
2018-12-05T00:43:04.779Z,10.90
2018-12-05T00:45:39.309Z,11.70
2018-12-05T00:48:14.109Z,11.57
2018-12-05T00:50:48.868Z,11.53
2018-12-05T00:53:23.679Z,10.87
2018-12-05T00:55:58.290Z,11.97
2018-12-05T00:58:33.056Z,11.63
2018-12-05T01:01:07.645Z,11.57
2018-12-05T01:03:42.273Z,11.70
2018-12-05T01:06:17.362Z,10.53
2018-12-05T01:08:51.929Z,11.97
2018-12-05T01:11:26.478Z,12.03
2018-12-05T01:14:01.181Z,11.30
2018-12-05T01:16:35.740Z,11.03
2018-12-05T01:19:10.429Z,11.00
2018-12-05T01:21:45.044Z,11.70
2018-12-05T01:24:19.869Z,11.80
2018-12-05T01:26:54.806Z,12.30
2018-12-05T01:29:29.466Z,12.80
2018-12-05T01:32:04.061Z,10.20
2018-12-05T01:34:38.682Z,10.53
2018-12-05T01:37:13.413Z,10.03
2018-12-05T01:39:48.897Z,11.73
2018-12-05T01:42:23.590Z,11.83
2018-12-05T01:44:58.134Z,10.47
2018-12-05T01:47:32.743Z,10.23
2018-12-05T01:50:07.455Z,11.17
2018-12-05T01:52:42.041Z,11.67
2018-12-05T01:55:16.800Z,11.20
2018-12-05T01:57:51.890Z,10.37
2018-12-05T02:00:26.637Z,10.60
2018-12-05T02:03:01.288Z,12.13
2018-12-05T02:05:36.141Z,11.63
2018-12-05T02:08:10.753Z,11.03
2018-12-05T02:10:45.383Z,11.40
2018-12-05T02:13:20.014Z,12.43
2018-12-05T02:15:54.625Z,12.73
2018-12-05T02:18:29.244Z,12.30
2018-12-05T02:21:03.972Z,11.13
2018-12-05T02:23:38.564Z,10.03
2018-12-05T02:26:13.249Z,11.43
2018-12-05T02:28:47.959Z,12.10
2018-12-05T02:31:22.629Z,12.23
2018-12-05T02:33:57.212Z,12.30
2018-12-05T02:36:31.771Z,11.43
2018-12-05T02:39:08.414Z,11.40
2018-12-05T02:41:43.075Z,11.47
2018-12-05T02:44:17.680Z,12.17
2018-12-05T02:46:52.269Z,11.83
2018-12-05T02:49:26.897Z,12.60
2018-12-05T02:52:01.636Z,13.43
2018-12-05T02:54:36.596Z,12.63
2018-12-05T02:57:11.197Z,12.97
2018-12-05T02:59:45.836Z,10.50
2018-12-05T03:02:20.380Z,10.27
2018-12-05T03:04:55.066Z,9.50
2018-12-05T03:07:29.881Z,10.00
2018-12-05T03:10:05.602Z,12.83
2018-12-05T03:12:40.304Z,11.07
2018-12-05T03:15:14.991Z,10.67
2018-12-05T03:17:49.650Z,12.27
2018-12-05T03:20:24.560Z,11.23
2018-12-05T03:22:59.008Z,9.80
2018-12-05T03:25:33.630Z,11.00
2018-12-05T03:28:08.215Z,11.97
2018-12-05T03:30:42.945Z,11.20
2018-12-05T03:33:17.573Z,11.03
2018-12-05T03:35:52.136Z,11.30
2018-12-05T03:38:26.913Z,9.13
2018-12-05T03:41:01.457Z,10.43
2018-12-05T03:43:36.325Z,11.90
2018-12-05T03:46:11.043Z,10.90
2018-12-05T03:48:45.640Z,11.17
2018-12-05T03:51:20.681Z,11.13
2018-12-05T03:53:55.593Z,11.30
2018-12-05T03:56:30.242Z,12.93
2018-12-05T03:59:04.832Z,12.30
2018-12-05T04:01:39.469Z,11.87
2018-12-05T04:04:14.040Z,12.10
2018-12-05T04:06:48.674Z,14.80
2018-12-05T04:09:23.351Z,17.97
2018-12-05T04:11:58.141Z,19.23
2018-12-05T04:14:33.069Z,23.03
2018-12-05T04:17:07.772Z,20.57
2018-12-05T04:19:42.413Z,12.83
2018-12-05T04:22:17.004Z,13.87
2018-12-05T04:24:51.812Z,15.83
2018-12-05T04:27:26.624Z,15.60
2018-12-05T04:30:01.577Z,21.43
2018-12-05T04:32:36.242Z,19.47
2018-12-05T04:35:10.914Z,15.70
2018-12-05T04:37:45.652Z,13.93
2018-12-05T04:40:20.721Z,11.17
2018-12-05T04:42:55.450Z,12.77
2018-12-05T04:45:30.166Z,11.00
2018-12-05T04:48:04.804Z,11.67
2018-12-05T04:50:39.367Z,11.97
2018-12-05T04:53:14.033Z,12.40
2018-12-05T04:55:48.826Z,12.13
2018-12-05T04:58:23.500Z,11.30
2018-12-05T05:00:58.116Z,12.83
2018-12-05T05:03:32.852Z,12.43
2018-12-05T05:06:07.907Z,19.27
2018-12-05T05:08:42.609Z,15.00
2018-12-05T05:11:17.193Z,14.07
2018-12-05T05:13:51.861Z,13.70
2018-12-05T05:16:26.507Z,12.60
2018-12-05T05:19:01.267Z,11.60
2018-12-05T05:21:36.130Z,11.10
2018-12-05T05:24:10.828Z,10.70
2018-12-05T05:26:45.501Z,13.57
2018-12-05T05:29:20.078Z,13.43
2018-12-05T05:31:54.753Z,12.60
2018-12-05T05:34:29.343Z,11.53
2018-12-05T05:37:04.002Z,11.87
2018-12-05T05:39:38.661Z,10.33
2018-12-05T05:42:13.198Z,9.17
2018-12-05T05:44:47.872Z,9.27
2018-12-05T05:47:22.673Z,8.93
2018-12-05T05:49:57.218Z,8.13
2018-12-05T05:52:31.798Z,9.90
2018-12-05T05:55:06.696Z,8.87
2018-12-05T05:57:43.180Z,10.73
2018-12-05T06:00:17.801Z,10.40
2018-12-05T06:02:52.429Z,9.07
2018-12-05T06:05:26.959Z,8.27
2018-12-05T06:08:01.535Z,9.23
2018-12-05T06:10:36.171Z,9.27
2018-12-05T06:13:10.756Z,9.43
2018-12-05T06:15:45.360Z,9.60
2018-12-05T06:18:20.249Z,9.83
2018-12-05T06:20:54.870Z,10.73
2018-12-05T06:23:29.640Z,9.33
2018-12-05T06:26:04.578Z,8.33
2018-12-05T06:28:39.317Z,9.57
2018-12-05T06:31:14.289Z,9.00
2018-12-05T06:33:48.919Z,7.67
2018-12-05T06:36:23.548Z,9.20
2018-12-05T06:38:59.463Z,8.10
2018-12-05T06:41:34.380Z,8.27
2018-12-05T06:44:09.093Z,8.17
2018-12-05T06:46:43.818Z,7.80
2018-12-05T06:49:18.541Z,8.97
2018-12-05T06:51:53.113Z,8.20
2018-12-05T06:54:27.736Z,7.83
2018-12-05T06:57:02.408Z,7.73
2018-12-05T06:59:37.256Z,7.63
2018-12-05T07:02:11.783Z,8.93
2018-12-05T07:04:46.499Z,8.17
2018-12-05T07:07:21.812Z,8.37
2018-12-05T07:09:56.674Z,8.90
2018-12-05T07:12:31.193Z,8.40
2018-12-05T07:15:06.274Z,8.20
2018-12-05T07:17:40.801Z,8.00
2018-12-05T07:20:15.359Z,8.07
2018-12-05T07:22:49.931Z,8.40
2018-12-05T07:25:24.568Z,7.50
2018-12-05T07:27:59.290Z,7.70
2018-12-05T07:30:34.026Z,8.10
2018-12-05T07:33:08.933Z,7.53
2018-12-05T07:35:43.607Z,7.97
2018-12-05T07:38:19.593Z,6.93
2018-12-05T07:40:54.618Z,6.20
2018-12-05T07:43:29.259Z,6.90
2018-12-05T07:46:03.879Z,5.70
2018-12-05T07:48:38.632Z,10.50
2018-12-05T07:51:13.414Z,17.97
2018-12-05T07:53:48.111Z,13.93
2018-12-05T07:56:22.705Z,7.47
2018-12-05T07:58:57.430Z,5.20
2018-12-05T08:01:32.148Z,5.20
2018-12-05T08:04:06.643Z,4.93
2018-12-05T08:06:41.240Z,4.83
2018-12-05T08:09:15.916Z,5.07
2018-12-05T08:11:50.539Z,5.27
2018-12-05T08:14:25.214Z,5.33
2018-12-05T08:16:59.854Z,6.13
2018-12-05T08:19:34.640Z,5.57
2018-12-05T08:22:09.427Z,5.27
2018-12-05T08:24:43.937Z,5.90
2018-12-05T08:27:18.707Z,7.37
2018-12-05T08:29:53.492Z,10.60
2018-12-05T08:32:28.202Z,15.10
2018-12-05T08:35:02.938Z,16.47
2018-12-05T08:37:37.756Z,18.27
2018-12-05T08:40:12.404Z,16.53
2018-12-05T08:42:47.034Z,17.40
2018-12-05T08:45:21.714Z,13.70
2018-12-05T08:47:56.351Z,15.70
2018-12-05T08:50:30.915Z,15.27
2018-12-05T08:53:05.619Z,15.53
2018-12-05T08:55:40.149Z,15.30
2018-12-05T08:58:14.866Z,19.23
2018-12-05T09:00:49.696Z,18.20
2018-12-05T09:03:24.376Z,16.97
2018-12-05T09:05:58.998Z,15.33
2018-12-05T09:08:33.899Z,20.02
2018-12-05T09:11:08.829Z,23.62
2018-12-05T09:13:43.541Z,20.27
2018-12-05T09:16:18.488Z,15.30
2018-12-05T09:18:53.349Z,14.65
2018-12-05T09:21:28.218Z,14.95
2018-12-05T09:24:03.096Z,13.68
2018-12-05T09:26:38.764Z,14.03
2018-12-05T09:29:13.242Z,13.95
2018-12-05T09:31:48.209Z,14.98
2018-12-05T09:34:23.081Z,12.90
2018-12-05T09:36:58.165Z,11.18
2018-12-05T09:39:33.280Z,11.50
2018-12-05T09:42:08.134Z,12.03
2018-12-05T09:44:43.072Z,11.30
2018-12-05T09:47:17.991Z,10.80
2018-12-05T09:49:52.908Z,11.40
2018-12-05T09:52:27.889Z,11.60
2018-12-05T09:55:03.089Z,10.93
2018-12-05T09:57:38.659Z,10.70
2018-12-05T10:00:13.523Z,9.73
2018-12-05T10:02:48.217Z,9.15
2018-12-05T10:05:23.052Z,9.78
2018-12-05T10:07:58.016Z,9.78
2018-12-05T10:10:33.152Z,9.40
2018-12-05T10:13:08.371Z,10.13
2018-12-05T10:15:43.280Z,10.25
2018-12-05T10:18:18.337Z,9.15
2018-12-05T10:20:56.156Z,9.23
2018-12-05T10:23:30.139Z,8.63
2018-12-05T10:26:05.074Z,8.80
2018-12-05T10:28:40.133Z,9.80
2018-12-05T10:31:15.279Z,11.10
2018-12-05T10:33:50.266Z,11.75
2018-12-05T10:36:25.127Z,12.75
2018-12-05T10:39:00.121Z,14.63
2018-12-05T10:41:35.044Z,13.97
2018-12-05T10:44:09.693Z,14.20
2018-12-05T10:46:44.558Z,12.37
2018-12-05T10:49:19.432Z,13.62
2018-12-05T10:51:54.465Z,12.63
2018-12-05T10:54:29.397Z,12.05
2018-12-05T10:57:04.498Z,12.50
2018-12-05T10:59:39.577Z,11.60
2018-12-05T11:02:19.748Z,11.57
2018-12-05T11:04:59.953Z,10.37
2018-12-05T11:07:40.283Z,11.10
2018-12-05T11:10:20.394Z,9.20
2018-12-05T11:13:00.449Z,8.60
2018-12-05T11:15:40.680Z,9.03
2018-12-05T11:21:23.707Z,9.78
2018-12-05T11:24:00.787Z,9.93
2018-12-05T11:26:36.071Z,9.73
2018-12-05T11:29:11.091Z,8.33
2018-12-05T11:31:46.121Z,8.13
2018-12-05T11:34:20.911Z,7.60
2018-12-05T11:36:55.953Z,7.35
2018-12-05T11:39:30.614Z,7.65
2018-12-05T11:42:05.573Z,6.10
2018-12-05T11:44:40.395Z,5.33
2018-12-05T11:47:15.609Z,5.67
2018-12-05T11:49:51.020Z,5.25
2018-12-05T11:52:26.346Z,5.28
2018-12-05T11:55:01.466Z,5.15
2018-12-05T11:57:36.279Z,5.43
2018-12-05T12:00:11.589Z,5.33
2018-12-05T12:02:46.841Z,5.55
2018-12-05T12:05:22.841Z,5.05
2018-12-05T12:07:58.046Z,5.60
2018-12-05T12:10:38.165Z,6.00
2018-12-05T12:13:12.922Z,6.00
2018-12-05T12:15:47.705Z,6.33
2018-12-05T12:18:22.447Z,6.40
2018-12-05T12:20:57.270Z,6.20
2018-12-05T12:23:31.909Z,5.53
2018-12-05T12:26:06.488Z,5.70
2018-12-05T12:28:41.464Z,5.25
2018-12-05T12:31:16.335Z,5.07
2018-12-05T12:33:51.069Z,4.25
2018-12-05T12:36:26.019Z,4.30
2018-12-05T12:39:00.936Z,4.70
2018-12-05T12:41:36.044Z,4.90
2018-12-05T12:44:11.862Z,5.00
2018-12-05T12:46:46.629Z,5.10
2018-12-05T12:49:21.844Z,4.10
2018-12-05T12:51:57.186Z,4.60
2018-12-05T12:54:32.354Z,4.40
2018-12-05T12:57:08.029Z,3.95
2018-12-05T12:59:43.284Z,4.55
2018-12-05T13:02:18.918Z,4.67
2018-12-05T13:04:54.310Z,4.35
2018-12-05T13:07:29.572Z,3.40
2018-12-05T13:10:05.812Z,3.00
2018-12-05T13:12:41.149Z,2.85
2018-12-05T13:15:16.326Z,2.70
2018-12-05T13:17:51.564Z,2.85
2018-12-05T13:20:26.771Z,2.70
2018-12-05T13:23:01.657Z,3.20
2018-12-05T13:25:36.900Z,2.83
2018-12-05T13:28:12.213Z,2.70
2018-12-05T13:30:47.519Z,3.15
2018-12-05T13:33:22.743Z,3.17
2018-12-05T13:35:57.881Z,2.60
2018-12-05T13:38:33.173Z,3.17
2018-12-05T13:41:08.338Z,3.20
2018-12-05T13:43:43.734Z,3.08
2018-12-05T13:46:18.504Z,3.00
2018-12-05T13:48:53.174Z,3.10
2018-12-05T13:51:27.844Z,3.50
2018-12-05T13:54:02.433Z,3.10
2018-12-05T13:56:37.081Z,3.40
2018-12-05T13:59:11.636Z,3.13
2018-12-05T14:01:47.062Z,3.30
2018-12-05T14:04:21.757Z,3.00
2018-12-05T14:06:56.447Z,3.63
2018-12-05T14:09:31.057Z,3.90
2018-12-05T14:12:07.583Z,3.77
2018-12-05T14:14:42.236Z,3.83
2018-12-05T14:17:16.915Z,3.87
2018-12-05T14:19:51.401Z,4.20
2018-12-05T14:22:26.428Z,4.65
2018-12-05T14:25:01.428Z,4.47
2018-12-05T14:27:36.073Z,3.97
2018-12-05T14:30:10.974Z,4.40
2018-12-05T14:32:45.659Z,3.90
2018-12-05T14:35:20.634Z,3.90
2018-12-05T14:37:55.450Z,3.97
2018-12-05T14:40:30.172Z,8.70
2018-12-05T14:43:05.083Z,4.90
2018-12-05T14:45:39.948Z,4.67
2018-12-05T14:48:14.528Z,5.53
2018-12-05T14:50:49.089Z,5.40
2018-12-05T14:53:23.640Z,5.60
2018-12-05T14:55:58.357Z,6.57
2018-12-05T14:58:32.892Z,5.33
2018-12-05T15:01:07.619Z,5.57
2018-12-05T15:03:42.249Z,5.90
2018-12-05T15:06:16.784Z,8.80
2018-12-05T15:08:51.518Z,6.80
2018-12-05T15:11:26.150Z,6.23
2018-12-05T15:14:00.893Z,6.47
2018-12-05T15:16:35.590Z,5.97
2018-12-05T15:19:10.124Z,6.60
2018-12-05T15:21:44.706Z,7.87
2018-12-05T15:24:19.683Z,6.50
2018-12-05T15:26:54.262Z,6.83
2018-12-05T15:29:29.096Z,8.47
2018-12-05T15:32:03.797Z,8.23
2018-12-05T15:34:38.704Z,9.27
2018-12-05T15:37:13.425Z,8.80
2018-12-05T15:39:48.215Z,10.23
2018-12-05T15:42:23.908Z,9.77
2018-12-05T15:44:58.624Z,8.17
2018-12-05T15:47:33.379Z,7.33
2018-12-05T15:50:08.426Z,7.73
2018-12-05T15:52:43.168Z,6.73
2018-12-05T15:55:17.877Z,6.70
2018-12-05T15:57:52.408Z,6.87
2018-12-05T16:00:28.187Z,7.10
2018-12-05T16:03:03.272Z,6.60
2018-12-05T16:05:38.143Z,7.17
2018-12-05T16:08:12.728Z,5.97
2018-12-05T16:10:47.241Z,6.23
2018-12-05T16:13:21.900Z,6.50
2018-12-05T16:15:56.466Z,6.70
2018-12-05T16:18:31.200Z,6.57
2018-12-05T16:21:05.755Z,6.20
2018-12-05T16:23:40.448Z,8.17
2018-12-05T16:26:15.068Z,7.33
2018-12-05T16:28:49.781Z,6.53
2018-12-05T16:31:24.345Z,5.70
2018-12-05T16:33:59.165Z,6.97
2018-12-05T16:36:33.710Z,6.60
2018-12-05T16:39:09.099Z,6.90
2018-12-05T16:41:43.689Z,7.93
2018-12-05T16:44:18.696Z,5.67
2018-12-05T16:46:53.345Z,5.83
2018-12-05T16:49:28.123Z,7.53
2018-12-05T16:52:02.961Z,6.10
2018-12-05T16:54:37.920Z,5.67
2018-12-05T16:57:12.717Z,5.97
2018-12-05T16:59:47.400Z,8.73
2018-12-05T17:02:21.931Z,7.67
2018-12-05T17:04:56.543Z,6.90
2018-12-05T17:07:31.274Z,6.03
2018-12-05T17:10:06.623Z,6.50
2018-12-05T17:12:41.405Z,6.23
2018-12-05T17:15:16.128Z,6.40
2018-12-05T17:17:50.833Z,6.03
2018-12-05T17:20:25.673Z,7.10
2018-12-05T17:23:00.359Z,8.00
2018-12-05T17:25:35.073Z,9.03
2018-12-05T17:28:09.812Z,10.50
2018-12-05T17:30:44.579Z,10.50
2018-12-05T17:33:19.102Z,10.27
2018-12-05T17:35:53.713Z,11.57
2018-12-05T17:38:28.267Z,10.90
2018-12-05T17:41:02.996Z,11.33
2018-12-05T17:43:37.710Z,12.97
2018-12-05T17:46:12.234Z,11.00
2018-12-05T17:48:46.959Z,11.73
2018-12-05T17:51:21.581Z,12.77
2018-12-05T17:53:56.319Z,12.30
2018-12-05T17:56:31.133Z,11.63
2018-12-05T17:59:06.631Z,10.50
2018-12-05T18:01:41.196Z,11.80
2018-12-05T18:04:15.927Z,12.23
2018-12-05T18:06:50.672Z,12.80
2018-12-05T18:09:25.313Z,12.63
2018-12-05T18:11:59.876Z,12.17
2018-12-05T18:14:34.697Z,10.70
2018-12-05T18:17:09.622Z,11.87
2018-12-05T18:19:44.472Z,12.40
2018-12-05T18:22:19.207Z,11.47
2018-12-05T18:24:53.837Z,12.17
2018-12-05T18:27:28.431Z,9.47
2018-12-05T18:30:04.551Z,7.50
2018-12-05T18:32:39.553Z,9.13
2018-12-05T18:35:14.553Z,9.40
2018-12-05T18:37:49.252Z,9.37
2018-12-05T18:40:23.951Z,9.60
2018-12-05T18:42:58.724Z,8.80
2018-12-05T18:45:33.651Z,6.87
2018-12-05T18:48:08.228Z,7.03
2018-12-05T18:50:42.786Z,6.90
2018-12-05T18:53:17.428Z,6.37
2018-12-05T18:55:52.151Z,5.87
2018-12-05T18:58:26.914Z,7.13
2018-12-05T19:01:01.479Z,7.03
2018-12-05T19:03:36.025Z,6.43
2018-12-05T19:06:10.911Z,6.43
2018-12-05T19:08:45.903Z,6.27
2018-12-05T19:11:20.630Z,6.13
2018-12-05T19:14:00.739Z,6.73
2018-12-05T19:16:35.320Z,6.37
2018-12-05T19:19:10.298Z,5.90
2018-12-05T19:21:44.832Z,6.43
2018-12-05T19:24:19.688Z,6.10
2018-12-05T19:26:54.551Z,6.50
2018-12-05T19:29:29.183Z,6.83
2018-12-05T19:32:03.922Z,5.97
2018-12-05T19:34:38.687Z,6.10
2018-12-05T19:37:13.451Z,6.67
2018-12-05T19:39:48.109Z,6.57
2018-12-05T19:42:22.841Z,12.57
2018-12-05T19:44:57.495Z,11.10
2018-12-05T19:47:32.035Z,8.03
2018-12-05T19:50:07.188Z,9.43
2018-12-05T19:52:42.513Z,7.67
2018-12-05T19:55:17.529Z,7.53
2018-12-05T19:57:52.364Z,6.70
2018-12-05T20:00:27.155Z,7.93
2018-12-05T20:03:01.688Z,8.20
2018-12-05T20:05:36.333Z,7.10
2018-12-05T20:08:10.918Z,7.10
2018-12-05T20:10:45.575Z,7.30
2018-12-05T20:13:20.407Z,7.33
2018-12-05T20:15:55.111Z,7.50
2018-12-05T20:18:29.980Z,7.10
2018-12-05T20:21:04.689Z,7.03
2018-12-05T20:23:39.326Z,6.63
2018-12-05T20:26:13.997Z,6.07
2018-12-05T20:28:48.598Z,5.90
2018-12-05T20:31:23.440Z,5.73
2018-12-05T20:33:58.057Z,5.73
2018-12-05T20:36:33.248Z,6.13
2018-12-05T20:39:10.078Z,6.90
2018-12-05T20:41:44.821Z,6.87
2018-12-05T20:44:19.543Z,7.30
2018-12-05T20:46:54.502Z,7.90
2018-12-05T20:49:29.540Z,7.40
2018-12-05T20:52:04.139Z,6.62
2018-12-05T20:54:38.777Z,6.20
2018-12-05T20:57:13.438Z,6.17
2018-12-05T20:59:48.205Z,6.07
2018-12-05T21:02:23.249Z,7.90
2018-12-05T21:04:58.203Z,8.60
2018-12-05T21:07:33.528Z,8.78
2018-12-05T21:10:08.432Z,9.37
2018-12-05T21:12:43.598Z,9.05
2018-12-05T21:15:18.608Z,13.28
2018-12-05T21:17:53.543Z,9.65
2018-12-05T21:20:28.614Z,8.43
2018-12-05T21:23:03.473Z,6.28
2018-12-05T21:25:38.347Z,6.08
2018-12-05T21:28:13.285Z,6.60
2018-12-05T21:30:48.191Z,7.50
2018-12-05T21:33:23.169Z,8.78
2018-12-05T21:35:58.025Z,6.62
2018-12-05T21:38:33.159Z,8.48
2018-12-05T21:41:08.072Z,10.55
2018-12-05T21:43:43.238Z,9.28
2018-12-05T21:46:18.088Z,10.75
2018-12-05T21:48:52.932Z,11.10
2018-12-05T21:51:27.859Z,12.13
2018-12-05T21:54:02.801Z,11.22
2018-12-05T21:56:37.698Z,8.93
2018-12-05T21:59:12.629Z,13.28
2018-12-05T22:01:47.592Z,12.18
2018-12-05T22:04:23.105Z,12.10
2018-12-05T22:06:57.859Z,8.93
2018-12-05T22:09:32.962Z,9.70
2018-12-05T22:12:07.776Z,11.00
2018-12-05T22:14:42.808Z,10.82
2018-12-05T22:17:17.664Z,10.70
2018-12-05T22:19:52.510Z,9.90
2018-12-05T22:22:27.493Z,10.82
2018-12-05T22:25:02.525Z,9.43
2018-12-05T22:27:37.363Z,10.20
2018-12-05T22:30:12.345Z,10.13
2018-12-05T22:32:47.238Z,8.90
2018-12-05T22:35:22.097Z,8.83
2018-12-05T22:37:56.991Z,8.63
2018-12-05T22:40:32.223Z,8.73
2018-12-05T22:43:07.087Z,7.92
2018-12-05T22:45:42.032Z,8.13
2018-12-05T22:48:16.780Z,8.00
2018-12-05T22:50:51.751Z,7.60
2018-12-05T22:53:26.714Z,7.20
2018-12-05T22:56:01.745Z,7.70
2018-12-05T22:58:36.771Z,7.70
2018-12-05T23:01:11.757Z,8.00
2018-12-05T23:03:46.846Z,8.45
2018-12-05T23:06:21.773Z,8.83
2018-12-05T23:08:57.107Z,9.10
2018-12-05T23:11:31.856Z,8.83
2018-12-05T23:14:06.824Z,9.40
2018-12-05T23:16:41.475Z,8.53
2018-12-05T23:19:16.423Z,8.70
2018-12-05T23:21:51.454Z,8.80
2018-12-05T23:24:26.275Z,8.65
2018-12-05T23:27:01.146Z,9.30
2018-12-05T23:29:36.408Z,10.25
2018-12-05T23:32:11.277Z,9.40
2018-12-05T23:34:46.028Z,9.73
2018-12-05T23:37:20.985Z,9.93
2018-12-05T23:39:55.967Z,9.43
2018-12-05T23:42:30.806Z,9.90
2018-12-05T23:45:05.974Z,9.48
2018-12-05T23:47:40.978Z,9.25
2018-12-05T23:50:15.912Z,8.48
2018-12-05T23:52:50.703Z,10.30
2018-12-05T23:55:25.617Z,10.30
2018-12-05T23:58:00.581Z,9.50
